createdAt,value
2023-01-23T00:00:55.210Z,1.00
2023-01-23T00:03:22.597Z,1.02
2023-01-23T00:06:10.383Z,0.70
2023-01-23T00:08:37.329Z,0.73
2023-01-23T00:11:09.269Z,0.70
2023-01-23T00:13:35.986Z,1.75
2023-01-23T00:16:06.782Z,0.73
2023-01-23T00:18:34.044Z,0.90
2023-01-23T00:21:13.072Z,0.88
2023-01-23T00:23:43.222Z,0.57
2023-01-23T00:26:13.355Z,0.65
2023-01-23T00:28:40.133Z,0.35
2023-01-23T00:31:09.774Z,1.17
2023-01-23T00:33:36.550Z,0.50
2023-01-23T00:36:03.374Z,0.35
2023-01-23T00:38:30.120Z,0.68
2023-01-23T00:40:56.765Z,0.47
2023-01-23T00:43:24.355Z,0.50
2023-01-23T00:45:51.679Z,0.35
2023-01-23T00:48:18.509Z,0.28
2023-01-23T00:50:45.221Z,0.30
2023-01-23T00:53:13.220Z,0.88
2023-01-23T00:55:40.893Z,0.30
2023-01-23T00:58:08.588Z,0.50
2023-01-23T01:00:37.497Z,0.60
2023-01-23T01:03:05.334Z,0.70
2023-01-23T01:05:32.341Z,0.77
2023-01-23T01:07:59.314Z,0.93
2023-01-23T01:10:29.697Z,0.30
2023-01-23T01:12:57.998Z,0.43
2023-01-23T01:15:25.303Z,0.47
2023-01-23T01:17:54.259Z,0.52
2023-01-23T01:20:26.091Z,0.57
2023-01-23T01:22:54.054Z,0.77
2023-01-23T01:25:21.372Z,0.82
2023-01-23T01:27:48.321Z,0.75
2023-01-23T01:30:16.584Z,0.47
2023-01-23T01:32:43.882Z,0.85
2023-01-23T01:35:11.908Z,0.93
2023-01-23T01:37:40.232Z,1.20
2023-01-23T01:40:09.377Z,1.33
2023-01-23T01:42:43.894Z,0.57
2023-01-23T01:45:48.334Z,0.98
2023-01-23T01:48:15.654Z,0.98
2023-01-23T01:50:42.832Z,1.30
2023-01-23T01:53:11.256Z,1.00
2023-01-23T01:55:39.438Z,1.42
2023-01-23T01:58:07.312Z,1.00
2023-01-23T02:00:34.182Z,1.38
2023-01-23T02:03:03.462Z,1.27
2023-01-23T02:05:56.775Z,1.00
2023-01-23T02:08:29.770Z,1.20
2023-01-23T02:10:56.901Z,1.73
2023-01-23T02:13:32.463Z,1.00
2023-01-23T02:16:01.599Z,1.42
2023-01-23T02:18:30.740Z,1.08
2023-01-23T02:21:01.727Z,1.08
2023-01-23T02:23:44.746Z,1.60
2023-01-23T02:26:18.289Z,0.88
2023-01-23T02:28:47.787Z,1.50
2023-01-23T02:31:15.744Z,0.93
2023-01-23T02:33:52.750Z,1.42
2023-01-23T02:36:23.634Z,1.08
2023-01-23T02:39:00.255Z,1.55
2023-01-23T02:41:39.206Z,1.80
2023-01-23T02:44:25.282Z,1.55
2023-01-23T02:46:53.587Z,1.25
2023-01-23T02:49:21.936Z,1.80
2023-01-23T02:51:50.027Z,1.70
2023-01-23T02:54:17.206Z,1.15
2023-01-23T02:56:44.199Z,1.27
2023-01-23T02:59:29.845Z,2.45
2023-01-23T03:01:57.521Z,1.38
2023-01-23T03:04:24.179Z,2.25
2023-01-23T03:06:50.868Z,1.67
2023-01-23T03:09:18.104Z,1.15
2023-01-23T03:11:46.511Z,1.60
2023-01-23T03:14:16.713Z,1.95
2023-01-23T03:16:47.110Z,1.80
2023-01-23T03:19:13.852Z,1.42
2023-01-23T03:21:41.024Z,2.42
2023-01-23T03:24:09.332Z,1.65
2023-01-23T03:26:39.031Z,1.67
2023-01-23T03:29:24.524Z,1.95
2023-01-23T03:31:51.385Z,1.33
2023-01-23T03:34:19.067Z,2.08
2023-01-23T03:36:45.853Z,1.60
2023-01-23T03:39:30.991Z,1.23
2023-01-23T03:42:00.770Z,1.30
2023-01-23T03:44:27.576Z,1.33
2023-01-23T03:46:54.200Z,1.13
2023-01-23T03:49:21.224Z,1.52
2023-01-23T03:51:48.042Z,1.77
2023-01-23T03:54:14.864Z,1.35
2023-01-23T03:56:42.685Z,1.05
2023-01-23T03:59:09.935Z,1.63
2023-01-23T04:01:37.581Z,1.13
2023-01-23T04:04:05.002Z,1.33
2023-01-23T04:06:31.839Z,1.30
2023-01-23T04:08:58.691Z,1.65
2023-01-23T04:11:26.702Z,1.30
2023-01-23T04:13:54.658Z,1.45
2023-01-23T04:16:23.244Z,0.88
2023-01-23T04:18:51.529Z,0.85
2023-01-23T04:21:18.612Z,1.38
2023-01-23T04:23:45.301Z,0.88
2023-01-23T04:26:12.367Z,1.30
2023-01-23T04:28:39.995Z,1.25
2023-01-23T04:31:09.217Z,1.27
2023-01-23T04:33:36.453Z,0.90
2023-01-23T04:36:05.677Z,1.98
2023-01-23T04:38:33.509Z,1.95
2023-01-23T04:41:00.292Z,2.25
2023-01-23T04:43:27.121Z,2.05
2023-01-23T04:45:55.164Z,2.25
2023-01-23T04:48:22.676Z,2.63
2023-01-23T04:50:50.097Z,2.38
2023-01-23T04:53:17.112Z,2.40
2023-01-23T04:55:46.290Z,1.92
2023-01-23T04:58:13.088Z,2.50
2023-01-23T05:00:39.771Z,2.25
2023-01-23T05:03:06.392Z,2.30
2023-01-23T05:05:33.627Z,2.85
2023-01-23T05:08:00.510Z,2.70
2023-01-23T05:10:27.312Z,1.40
2023-01-23T05:12:54.146Z,2.67
2023-01-23T05:15:21.291Z,1.42
2023-01-23T05:17:49.932Z,2.22
2023-01-23T05:20:16.761Z,2.20
2023-01-23T05:22:52.413Z,1.85
2023-01-23T05:25:27.170Z,1.80
2023-01-23T05:27:54.108Z,2.40
2023-01-23T05:30:23.319Z,2.35
2023-01-23T05:32:50.898Z,2.55
2023-01-23T05:35:17.764Z,2.60
2023-01-23T05:37:48.688Z,1.77
2023-01-23T05:40:15.524Z,2.92
2023-01-23T05:42:42.186Z,3.15
2023-01-23T05:45:09.659Z,2.70
2023-01-23T05:47:36.583Z,2.45
2023-01-23T05:50:04.659Z,2.03
2023-01-23T05:52:31.463Z,1.77
2023-01-23T05:54:58.106Z,1.95
2023-01-23T05:57:25.774Z,3.00
2023-01-23T05:59:52.709Z,2.55
2023-01-23T06:02:19.545Z,2.95
2023-01-23T06:04:49.018Z,3.03
2023-01-23T06:07:17.986Z,2.42
2023-01-23T06:09:44.718Z,2.63
2023-01-23T06:12:12.056Z,2.53
2023-01-23T06:14:38.660Z,2.92
2023-01-23T06:17:06.780Z,2.22
2023-01-23T06:19:33.530Z,2.40
2023-01-23T06:22:00.178Z,2.00
2023-01-23T06:24:26.807Z,2.67
2023-01-23T06:26:53.397Z,2.47
2023-01-23T06:29:20.114Z,2.38
2023-01-23T06:31:47.567Z,2.55
2023-01-23T06:34:15.362Z,2.42
2023-01-23T06:36:42.612Z,2.65
2023-01-23T06:39:13.090Z,2.45
2023-01-23T06:41:39.663Z,2.80
2023-01-23T06:44:07.724Z,1.90
2023-01-23T06:46:34.947Z,3.35
2023-01-23T06:49:05.834Z,2.25
2023-01-23T06:51:33.165Z,2.58
2023-01-23T06:54:00.050Z,2.25
2023-01-23T06:56:26.854Z,2.40
2023-01-23T06:58:53.461Z,3.13
2023-01-23T07:01:20.526Z,3.15
2023-01-23T07:03:47.791Z,2.97
2023-01-23T07:06:15.514Z,2.70
2023-01-23T07:08:42.971Z,2.83
2023-01-23T07:11:10.411Z,1.70
2023-01-23T07:13:37.043Z,3.03
2023-01-23T07:16:05.910Z,2.60
2023-01-23T07:18:33.320Z,2.88
2023-01-23T07:21:00.954Z,2.63
2023-01-23T07:23:27.840Z,2.13
2023-01-23T07:26:03.720Z,2.90
2023-01-23T07:28:30.926Z,2.85
2023-01-23T07:30:59.441Z,2.35
2023-01-23T07:33:26.624Z,3.15
2023-01-23T07:35:53.304Z,3.45
2023-01-23T07:38:20.757Z,3.40
2023-01-23T07:40:47.334Z,2.60
2023-01-23T07:43:13.903Z,3.30
2023-01-23T07:45:40.438Z,3.95
2023-01-23T07:48:07.098Z,3.40
2023-01-23T07:50:34.104Z,2.95
2023-01-23T07:53:00.743Z,3.22
2023-01-23T07:55:27.393Z,2.45
2023-01-23T07:57:53.937Z,2.70
2023-01-23T08:00:24.085Z,3.20
2023-01-23T08:02:51.374Z,2.58
2023-01-23T08:05:17.960Z,3.45
2023-01-23T08:07:44.753Z,3.92
2023-01-23T08:10:11.868Z,2.45
2023-01-23T08:12:38.457Z,2.45
2023-01-23T08:15:05.684Z,2.83
2023-01-23T08:17:32.313Z,3.33
2023-01-23T08:19:58.932Z,2.92
2023-01-23T08:22:25.736Z,2.88
2023-01-23T08:24:52.471Z,3.38
2023-01-23T08:27:19.287Z,3.65
2023-01-23T08:29:45.886Z,2.97
2023-01-23T08:32:12.564Z,3.28
2023-01-23T08:34:39.213Z,2.92
2023-01-23T08:37:05.841Z,3.10
2023-01-23T08:39:32.761Z,4.10
2023-01-23T08:41:59.376Z,3.63
2023-01-23T08:44:26.183Z,3.88
2023-01-23T08:46:52.779Z,2.95
2023-01-23T08:49:20.254Z,2.85
2023-01-23T08:51:47.080Z,2.42
2023-01-23T08:54:13.897Z,3.42
2023-01-23T08:56:41.433Z,3.55
2023-01-23T08:59:08.850Z,2.95
2023-01-23T09:01:35.482Z,3.17
2023-01-23T09:04:02.106Z,2.25
2023-01-23T09:06:28.885Z,3.35
2023-01-23T09:08:56.497Z,2.47
2023-01-23T09:11:23.707Z,3.17
2023-01-23T09:13:52.972Z,3.13
2023-01-23T09:16:20.629Z,2.88
2023-01-23T09:18:47.301Z,2.63
2023-01-23T09:21:16.731Z,3.33
2023-01-23T09:23:43.865Z,3.58
2023-01-23T09:26:13.204Z,3.20
2023-01-23T09:28:42.434Z,4.07
2023-01-23T09:31:12.171Z,2.50
2023-01-23T09:33:38.811Z,3.45
2023-01-23T09:36:06.086Z,3.03
2023-01-23T09:38:33.986Z,4.13
2023-01-23T09:41:07.684Z,3.40
2023-01-23T09:43:43.314Z,3.50
2023-01-23T09:46:35.501Z,3.70
2023-01-23T09:49:03.852Z,3.10
2023-01-23T09:51:59.001Z,3.22
2023-01-23T09:54:29.750Z,3.50
2023-01-23T09:56:59.417Z,3.28
2023-01-23T10:00:15.266Z,3.83
2023-01-23T10:02:45.470Z,3.30
2023-01-23T10:05:18.432Z,3.70
2023-01-23T10:08:03.356Z,4.32
2023-01-23T10:10:48.745Z,2.63
2023-01-23T10:13:40.730Z,3.53
2023-01-23T10:16:49.572Z,3.65
2023-01-23T10:19:43.698Z,3.38
2023-01-23T10:22:47.256Z,4.07
2023-01-23T10:25:23.131Z,3.65
2023-01-23T10:27:51.239Z,3.35
2023-01-23T10:30:30.960Z,3.63
2023-01-23T10:33:14.263Z,3.90
2023-01-23T10:35:53.959Z,3.35
2023-01-23T10:38:33.966Z,4.20
2023-01-23T10:41:17.524Z,4.45
2023-01-23T10:43:47.712Z,4.32
2023-01-23T10:46:27.913Z,3.67
2023-01-23T10:48:55.534Z,3.72
2023-01-23T10:51:55.804Z,4.25
2023-01-23T10:54:33.719Z,4.38
2023-01-23T10:57:03.626Z,3.75
2023-01-23T10:59:51.444Z,4.47
2023-01-23T11:02:21.857Z,4.22
2023-01-23T11:04:51.844Z,4.45
2023-01-23T11:07:30.602Z,4.05
2023-01-23T11:10:00.298Z,4.40
2023-01-23T11:12:29.550Z,2.92
2023-01-23T11:15:23.520Z,3.35
2023-01-23T11:17:52.324Z,4.13
2023-01-23T11:20:25.954Z,4.05
2023-01-23T11:23:15.895Z,3.58
2023-01-23T11:25:43.895Z,4.13
2023-01-23T11:28:27.002Z,4.47
2023-01-23T11:31:18.590Z,4.80
2023-01-23T11:34:12.682Z,4.18
2023-01-23T11:36:51.947Z,3.72
2023-01-23T11:39:41.222Z,4.25
2023-01-23T11:42:11.905Z,4.63
2023-01-23T11:44:45.975Z,4.18
2023-01-23T11:47:50.537Z,3.90
2023-01-23T11:50:37.137Z,3.53
2023-01-23T11:53:30.691Z,4.22
2023-01-23T11:56:14.501Z,4.43
2023-01-23T11:59:09.635Z,4.53
2023-01-23T12:02:15.395Z,4.15
2023-01-23T12:04:59.537Z,4.38
2023-01-23T12:07:27.049Z,3.63
2023-01-23T12:10:17.482Z,3.72
2023-01-23T12:12:53.420Z,4.13
2023-01-23T12:15:29.079Z,3.80
2023-01-23T12:18:30.720Z,4.07
2023-01-23T12:21:05.401Z,3.35
2023-01-23T12:23:53.650Z,4.05
2023-01-23T12:26:22.683Z,4.00
2023-01-23T12:29:15.656Z,4.00
2023-01-23T12:32:01.777Z,4.15
2023-01-23T12:34:49.963Z,3.08
2023-01-23T12:37:33.909Z,3.70
2023-01-23T12:40:10.123Z,3.78
2023-01-23T12:42:48.933Z,4.47
2023-01-23T12:45:32.782Z,6.90
2023-01-23T12:48:02.193Z,5.00
2023-01-23T12:50:37.623Z,3.75
2023-01-23T12:53:12.421Z,4.38
2023-01-23T12:56:06.703Z,4.70
2023-01-23T12:58:36.603Z,3.15
2023-01-23T13:01:29.376Z,3.25
2023-01-23T13:04:04.129Z,3.50
2023-01-23T13:07:12.220Z,3.20
2023-01-23T13:10:23.861Z,3.38
2023-01-23T13:12:56.154Z,3.63
2023-01-23T13:15:40.039Z,4.00
2023-01-23T13:18:22.467Z,5.15
2023-01-23T13:21:15.659Z,4.57
2023-01-23T13:23:42.334Z,4.30
2023-01-23T13:26:23.181Z,4.60
2023-01-23T13:28:55.076Z,4.05
2023-01-23T13:31:42.145Z,4.03
2023-01-23T13:34:31.776Z,3.90
2023-01-23T13:37:36.716Z,5.10
2023-01-23T13:40:14.496Z,3.47
2023-01-23T13:42:41.290Z,3.67
2023-01-23T13:45:24.391Z,4.20
2023-01-23T14:22:44.063Z,4.43
2023-01-23T14:25:19.455Z,5.03
2023-01-23T14:27:54.582Z,4.35
2023-01-23T14:30:26.919Z,3.70
2023-01-23T14:32:54.232Z,5.00
2023-01-23T14:35:29.732Z,4.15
2023-01-23T14:38:04.968Z,5.03
2023-01-23T14:40:46.772Z,4.57
2023-01-23T14:43:22.999Z,4.03
2023-01-23T14:46:02.737Z,4.15
2023-01-23T14:48:33.745Z,6.10
2023-01-23T14:51:18.999Z,4.88
2023-01-23T14:54:02.067Z,5.70
2023-01-23T14:56:32.383Z,5.43
2023-01-23T14:59:03.300Z,6.10
2023-01-23T15:01:30.151Z,5.63
2023-01-23T15:04:05.732Z,4.82
2023-01-23T15:06:34.901Z,5.18
2023-01-23T15:09:14.164Z,4.72
2023-01-23T15:11:41.087Z,5.80
2023-01-23T15:14:33.345Z,5.70
2023-01-23T15:17:03.172Z,4.97
2023-01-23T15:19:31.405Z,4.63
2023-01-23T15:22:28.817Z,4.43
2023-01-23T15:24:55.964Z,5.05
2023-01-23T15:27:24.546Z,5.28
2023-01-23T15:29:52.134Z,6.00
2023-01-23T15:32:25.148Z,5.15
2023-01-23T15:34:57.628Z,5.07
2023-01-23T15:37:26.457Z,6.00
2023-01-23T15:40:02.066Z,5.68
2023-01-23T15:42:35.018Z,5.47
2023-01-23T15:45:02.388Z,6.13
2023-01-23T15:47:30.479Z,6.60
2023-01-23T15:50:00.247Z,5.38
2023-01-23T15:52:29.825Z,6.63
2023-01-23T15:55:05.037Z,5.82
2023-01-23T15:57:31.648Z,5.60
2023-01-23T15:59:58.200Z,4.60
2023-01-23T16:02:31.294Z,5.57
2023-01-23T16:05:00.901Z,5.97
2023-01-23T16:07:34.797Z,5.80
2023-01-23T16:10:04.692Z,5.68
2023-01-23T16:12:32.660Z,5.15
2023-01-23T16:15:02.438Z,5.72
2023-01-23T16:17:29.062Z,4.80
2023-01-23T16:19:55.857Z,5.25
2023-01-23T16:22:28.950Z,5.50
2023-01-23T16:24:57.321Z,6.78
2023-01-23T16:27:27.616Z,5.47
2023-01-23T16:29:55.678Z,4.78
2023-01-23T16:32:22.680Z,5.82
2023-01-23T16:34:49.930Z,5.72
2023-01-23T16:37:18.209Z,5.82
2023-01-23T16:39:46.371Z,5.25
2023-01-23T16:42:22.492Z,5.57
2023-01-23T16:44:50.387Z,6.45
2023-01-23T16:47:19.596Z,6.35
2023-01-23T16:49:58.008Z,5.10
2023-01-23T16:52:34.239Z,5.68
2023-01-23T16:55:26.649Z,5.80
2023-01-23T16:57:56.058Z,5.35
2023-01-23T17:00:34.018Z,5.05
2023-01-23T17:03:07.258Z,4.95
2023-01-23T17:05:33.877Z,7.18
2023-01-23T17:08:00.600Z,6.15
2023-01-23T17:10:37.855Z,7.03
2023-01-23T17:13:12.040Z,5.82
2023-01-23T17:15:38.723Z,5.65
2023-01-23T17:18:05.490Z,5.90
2023-01-23T17:20:32.375Z,7.20
2023-01-23T17:22:59.093Z,6.28
2023-01-23T17:25:26.826Z,7.57
2023-01-23T17:28:11.587Z,6.72
2023-01-23T17:30:40.148Z,6.82
2023-01-23T17:33:18.054Z,6.63
2023-01-23T17:35:45.719Z,6.63
2023-01-23T17:38:36.461Z,6.68
2023-01-23T17:41:04.571Z,6.28
2023-01-23T17:43:31.578Z,6.18
2023-01-23T17:45:58.589Z,6.38
2023-01-23T17:48:31.533Z,7.32
2023-01-23T17:50:58.873Z,6.32
2023-01-23T17:53:27.880Z,6.28
2023-01-23T17:55:54.635Z,5.97
2023-01-23T17:58:21.355Z,5.90
2023-01-23T18:00:53.258Z,6.57
2023-01-23T18:03:24.690Z,5.90
2023-01-23T18:05:51.725Z,6.40
2023-01-23T18:08:21.557Z,6.40
2023-01-23T18:10:52.175Z,6.63
2023-01-23T18:13:45.964Z,5.15
2023-01-23T18:16:26.981Z,6.30
2023-01-23T18:19:20.038Z,7.32
2023-01-23T18:21:51.858Z,5.35
2023-01-23T18:24:32.690Z,5.47
2023-01-23T18:27:24.920Z,5.53
2023-01-23T18:30:05.293Z,6.43
2023-01-23T18:32:52.015Z,7.13
2023-01-23T18:35:25.949Z,6.32
2023-01-23T18:38:10.966Z,7.38
2023-01-23T18:40:56.398Z,5.65
2023-01-23T18:43:33.692Z,5.90
2023-01-23T18:46:00.515Z,5.60
2023-01-23T18:48:27.505Z,7.55
2023-01-23T18:51:13.135Z,7.13
2023-01-23T18:54:10.759Z,6.10
2023-01-23T18:57:15.576Z,6.75
2023-01-23T19:00:15.332Z,6.00
2023-01-23T19:02:52.476Z,6.20
2023-01-23T19:05:25.551Z,7.13
2023-01-23T19:07:52.350Z,8.27
2023-01-23T19:10:22.410Z,8.02
2023-01-23T19:13:13.678Z,6.97
2023-01-23T19:16:05.220Z,7.25
2023-01-23T19:18:44.605Z,6.93
2023-01-23T19:21:14.198Z,5.93
2023-01-23T19:23:59.646Z,7.43
2023-01-23T19:26:33.045Z,6.53
2023-01-23T19:29:08.421Z,7.93
2023-01-23T19:31:47.426Z,10.65
2023-01-23T19:34:22.369Z,9.10
2023-01-23T19:36:48.956Z,9.18
2023-01-23T19:39:15.614Z,7.97
2023-01-23T19:41:45.407Z,9.02
2023-01-23T19:44:15.227Z,8.02
2023-01-23T19:46:42.736Z,7.90
2023-01-23T19:49:10.710Z,7.28
2023-01-23T19:51:38.702Z,7.43
2023-01-23T19:54:10.801Z,7.25
2023-01-23T19:56:38.976Z,6.93
2023-01-23T19:59:06.742Z,7.43
2023-01-23T20:01:41.319Z,6.30
2023-01-23T20:04:12.773Z,6.95
2023-01-23T20:06:40.682Z,6.65
2023-01-23T20:09:08.564Z,6.82
2023-01-23T20:11:36.295Z,8.07
2023-01-23T20:14:03.599Z,7.82
2023-01-23T20:16:30.541Z,7.40
2023-01-23T20:18:57.183Z,7.30
2023-01-23T20:21:25.050Z,6.53
2023-01-23T20:23:52.367Z,7.00
2023-01-23T20:26:20.586Z,7.68
2023-01-23T20:28:49.469Z,7.95
2023-01-23T20:31:16.978Z,7.30
2023-01-23T20:33:43.857Z,7.38
2023-01-23T20:36:11.205Z,6.75
2023-01-23T20:38:39.387Z,6.72
2023-01-23T20:41:09.086Z,6.40
2023-01-23T20:43:35.839Z,7.68
2023-01-23T20:46:05.903Z,7.72
2023-01-23T20:48:41.494Z,7.65
2023-01-23T20:51:09.800Z,6.93
2023-01-23T20:53:39.891Z,7.70
2023-01-23T20:56:12.672Z,7.57
2023-01-23T20:59:01.618Z,7.25
2023-01-23T21:01:51.761Z,6.72
2023-01-23T21:04:18.603Z,7.50
2023-01-23T21:06:45.354Z,7.32
2023-01-23T21:09:12.128Z,6.72
2023-01-23T21:11:38.837Z,6.47
2023-01-23T21:14:05.652Z,7.65
2023-01-23T21:16:32.690Z,6.43
2023-01-23T21:19:00.568Z,8.30
2023-01-23T21:21:27.486Z,6.22
2023-01-23T21:23:54.139Z,7.50
2023-01-23T21:26:23.930Z,6.25
2023-01-23T21:28:52.157Z,6.43
2023-01-23T21:31:30.756Z,7.10
2023-01-23T21:34:00.392Z,6.65
2023-01-23T21:36:27.139Z,7.25
2023-01-23T21:38:54.455Z,5.97
2023-01-23T21:41:21.775Z,6.72
2023-01-23T21:43:48.614Z,7.35
2023-01-23T21:46:15.530Z,7.93
2023-01-23T21:48:43.141Z,8.27
2023-01-23T21:51:18.431Z,8.43
2023-01-23T21:53:47.331Z,7.20
2023-01-23T21:56:16.687Z,7.25
2023-01-23T21:58:43.595Z,7.00
2023-01-23T22:01:35.665Z,6.50
2023-01-23T22:04:12.025Z,6.80
2023-01-23T22:06:40.846Z,6.90
2023-01-23T22:09:10.262Z,6.82
2023-01-23T22:11:37.393Z,7.68
2023-01-23T22:14:04.657Z,6.68
2023-01-23T22:16:47.437Z,7.03
2023-01-23T22:19:22.087Z,8.35
2023-01-23T22:21:50.269Z,6.82
2023-01-23T22:24:17.186Z,7.80
2023-01-23T22:26:43.852Z,6.28
2023-01-23T22:29:12.420Z,8.30
2023-01-23T22:31:39.166Z,6.78
2023-01-23T22:34:05.956Z,7.05
2023-01-23T22:36:32.753Z,7.47
2023-01-23T22:38:59.431Z,5.43
2023-01-23T22:41:26.119Z,5.88
2023-01-23T22:43:59.091Z,8.13
2023-01-23T22:46:26.185Z,6.43
2023-01-23T22:48:52.747Z,7.30
2023-01-23T22:51:24.383Z,7.63
2023-01-23T22:53:52.120Z,6.97
2023-01-23T22:56:19.019Z,8.30
2023-01-23T22:58:46.764Z,7.88
2023-01-23T23:01:14.027Z,8.32
2023-01-23T23:03:40.867Z,7.65
2023-01-23T23:06:09.512Z,13.38
2023-01-23T23:08:36.637Z,9.85
2023-01-23T23:11:08.850Z,7.95
2023-01-23T23:13:37.772Z,8.52
2023-01-23T23:16:10.880Z,8.38
2023-01-23T23:18:39.304Z,6.80
2023-01-23T23:21:09.719Z,7.28
2023-01-23T23:23:36.724Z,6.65
2023-01-23T23:26:04.836Z,6.65
2023-01-23T23:28:32.706Z,7.22
2023-01-23T23:30:59.837Z,6.90
2023-01-23T23:33:27.284Z,7.43
2023-01-23T23:35:54.129Z,6.38
2023-01-23T23:38:21.047Z,6.95
2023-01-23T23:41:02.104Z,7.20
2023-01-23T23:43:29.349Z,6.68
2023-01-23T23:45:58.237Z,5.85
2023-01-23T23:48:25.587Z,6.55
2023-01-23T23:50:52.833Z,7.80
2023-01-23T23:53:19.927Z,6.47
2023-01-23T23:55:47.305Z,6.13
2023-01-23T23:58:14.144Z,6.82
